Chiloquin, OR

9:18 AM PST on February 13, 2016 (GMT -0800)
RAWS | | Change Station
CLOSE
Current Station
Personal Weather Station
Location: Sprague River, OR
Elevation: 4419 ft
Nearby Weather Stations

Elev 4419 ft 42.58 °N, 121.89 °W | Updated 2 hours ago

Clear
Clear
26.0 °F
Feels Like 26.0 °F
N
2.0
Wind Variable Wind from ESE
Gusts 4.0 mph

Today
High -- | Low -- °F
--% Chance of Precip.
Yesterday
High -- | Low -- °F
Precip. -- in
Pressure 30.38 in
Visibility 10.0 miles
Clouds Clear
Dew Point 25.0 °F
Humidity 96%
Rainfall in
Snow Depth Not available.
7:07 AM 5:36 PM
Waxing Crescent, 32% visible
METAR KLMT 131653Z 00000KT 10SM CLR 02/M01 A3036 RMK AO2 SLP285 T00171011
Pressure 30.38 in
Visibility 10.0 miles
Clouds Clear
Dew Point 25.0 °F
Humidity 96%
Rainfall in
Snow Depth Not available.
7:07 AM 5:36 PM
Waxing Crescent, 32% visible
METAR KLMT 131653Z 00000KT 10SM CLR 02/M01 A3036 RMK AO2 SLP285 T00171011

10-Day Weather Forecast

Almanac

Astronomy

Feb. 13, 2016 Rise Set
Actual Time
Civil Twilight
Nautical Twilight
Astronomical Twilight
Moon
Length of Visible Light
Length of Day
Tomorrow will be .
, % of the Moon is Illuminated

Today's Extremes

State Highs State Lows

Community

WunderPhotos

Upload Photos

1,892,615 photos uploaded!

WunderBlog® & News

Nearby

Air Quality

  Air Quality AQ Index Pollutant
Not available.

Snow Depth

Station Depth Elevation

Earthquake Activity

City Distance Mag. Time & Date
Minimum magnitude displayed is 2.5.

Coastal Water Temperatures

Place Temperature

Stations

Nearby Weather Stations

Station Location Temp. Windchill Dew Point Humidity Wind Precip. Elev Updated Type
                   

Watches & Warnings

There are currently no watches in effect.